Time;durP1;ratioP1;P1;durP2;ratioP2;P2;SDS_P1;SDS_P2;PMS_P1;PMS_P2;Temp;Humidity;BMP_temperature;BMP_pressure;BME280_temperature;BME280_humidity;BME280_pressure;Samples;Min_cycle;Max_cycle;Signal;HPM_P1;HPM_P2
2023/08/06 00:01:31;;;;;;;19.17;9.60;;;;;;;;;;5053344;28;20255;-34
2023/08/06 00:03:56;;;;;;;11.70;8.50;;;;;;;;;;5053293;28;20113;-33
2023/08/06 00:06:21;;;;;;;13.15;8.82;;;;;;;;;;5053244;28;20244;-35
2023/08/06 00:08:46;;;;;;;12.13;8.80;;;;;;;;;;5053154;28;20059;-29
2023/08/06 00:11:12;;;;;;;13.48;9.13;;;;;;;;;;5053405;28;20036;-31
2023/08/06 00:13:38;;;;;;;20.85;9.85;;;;;;;;;;5053155;28;20525;-31
2023/08/06 00:16:10;;;;;;;13.50;8.97;;;;;;;;;;5053178;28;20056;-31
2023/08/06 00:18:35;;;;;;;13.98;9.35;;;;;;;;;;5053121;28;20025;-31
2023/08/06 00:21:00;;;;;;;14.18;9.18;;;;;;;;;;5053356;28;20024;-31
2023/08/06 00:23:25;;;;;;;11.97;8.97;;;;;;;;;;5053049;28;20048;-30
2023/08/06 00:25:50;;;;;;;12.43;9.33;;;;;;;;;;5056461;28;20255;-31
2023/08/06 00:28:16;;;;;;;13.13;9.47;;;;;;;;;;5057162;28;20777;-31
2023/08/06 00:30:41;;;;;;;13.07;9.57;;;;;;;;;;5057435;28;20278;-32
2023/08/06 00:33:06;;;;;;;14.30;9.10;;;;;;;;;;5057452;28;20251;-31
2023/08/06 00:35:31;;;;;;;16.27;9.50;;;;;;;;;;5056858;28;20745;-31
2023/08/06 00:37:56;;;;;;;15.73;9.90;;;;;;;;;;5057298;28;20267;-32
2023/08/06 00:40:22;;;;;;;12.02;9.00;;;;;;;;;;5056973;28;20271;-31
2023/08/06 00:42:47;;;;;;;13.63;9.13;;;;;;;;;;5055501;28;20025;-31
2023/08/06 00:45:13;;;;;;;13.75;9.55;;;;;;;;;;5057030;28;20155;-31
2023/08/06 00:47:39;;;;;;;15.85;9.10;;;;;;;;;;5056407;28;20373;-31
2023/08/06 00:50:05;;;;;;;16.77;8.68;;;;;;;;;;5056506;28;20033;-31
2023/08/06 00:52:30;;;;;;;14.18;8.98;;;;;;;;;;5056523;28;20102;-31
2023/08/06 00:54:55;;;;;;;14.88;9.23;;;;;;;;;;5057128;28;20044;-31
2023/08/06 00:57:22;;;;;;;13.50;9.00;;;;;;;;;;5057069;28;20021;-31
2023/08/06 00:59:48;;;;;;;14.40;9.05;;;;;;;;;;5056481;28;20017;-31
2023/08/06 01:02:13;;;;;;;15.10;9.00;;;;;;;;;;5056677;28;20036;-31
2023/08/06 01:04:38;;;;;;;14.32;9.45;;;;;;;;;;5057195;28;20100;-31
2023/08/06 01:07:25;;;;;;;16.17;9.02;;;;;;;;;;5056184;28;20111;-31
2023/08/06 01:09:56;;;;;;;13.27;8.65;;;;;;;;;;5054959;28;20039;-30
2023/08/06 01:12:26;;;;;;;15.93;9.50;;;;;;;;;;5056801;28;20341;-30
2023/08/06 01:15:00;;;;;;;13.80;8.70;;;;;;;;;;5056387;28;20040;-30
2023/08/06 01:17:26;;;;;;;14.88;8.05;;;;;;;;;;5055152;28;20091;-31
2023/08/06 01:19:51;;;;;;;13.85;8.20;;;;;;;;;;5056383;28;20043;-31
2023/08/06 01:22:17;;;;;;;13.05;7.68;;;;;;;;;;5054427;28;20511;-31
2023/08/06 01:24:43;;;;;;;15.33;7.80;;;;;;;;;;5053837;28;20024;-31
2023/08/06 01:27:11;;;;;;;13.27;7.95;;;;;;;;;;5053714;28;20269;-31
2023/08/06 01:29:46;;;;;;;14.32;8.48;;;;;;;;;;5053950;28;20086;-31
2023/08/06 01:32:11;;;;;;;11.70;7.93;;;;;;;;;;5053750;28;20045;-31
2023/08/06 01:34:38;;;;;;;16.85;8.27;;;;;;;;;;5053654;28;20123;-31
2023/08/06 01:37:04;;;;;;;16.08;7.97;;;;;;;;;;5054012;28;20032;-31
2023/08/06 01:39:29;;;;;;;11.70;8.02;;;;;;;;;;5056458;28;20436;-30
2023/08/06 01:41:54;;;;;;;11.90;7.97;;;;;;;;;;5055641;28;20421;-30
2023/08/06 01:44:20;;;;;;;17.10;8.40;;;;;;;;;;5056427;28;20503;-29
2023/08/06 01:46:45;;;;;;;14.07;8.40;;;;;;;;;;5055604;28;20288;-29
2023/08/06 01:49:10;;;;;;;13.53;7.80;;;;;;;;;;5055436;28;20040;-31
2023/08/06 01:51:35;;;;;;;13.83;9.17;;;;;;;;;;5055675;28;20096;-31
2023/08/06 01:54:00;;;;;;;19.00;8.60;;;;;;;;;;5055463;28;20734;-30
2023/08/06 01:56:25;;;;;;;16.07;8.77;;;;;;;;;;5055379;28;20248;-30
2023/08/06 01:58:51;;;;;;;25.07;9.40;;;;;;;;;;5055362;28;20310;-31
2023/08/06 02:01:17;;;;;;;12.93;8.82;;;;;;;;;;5055287;28;20652;-31
2023/08/06 02:03:42;;;;;;;17.05;9.95;;;;;;;;;;5055217;28;20086;-31
2023/08/06 02:06:07;;;;;;;17.80;9.40;;;;;;;;;;5055155;28;20371;-31
2023/08/06 02:08:32;;;;;;;17.73;9.93;;;;;;;;;;5055392;28;20025;-31
2023/08/06 02:10:58;;;;;;;18.60;10.45;;;;;;;;;;5055610;28;20017;-31
2023/08/06 02:13:23;;;;;;;16.20;10.38;;;;;;;;;;5055346;28;20041;-31
2023/08/06 02:15:48;;;;;;;18.20;10.23;;;;;;;;;;5054946;28;20036;-31
2023/08/06 02:18:17;;;;;;;20.13;10.90;;;;;;;;;;5055215;28;20021;-31
2023/08/06 02:20:42;;;;;;;15.20;10.07;;;;;;;;;;5054958;28;20021;-31
2023/08/06 02:23:07;;;;;;;14.95;10.32;;;;;;;;;;5055151;28;20377;-31
2023/08/06 02:25:32;;;;;;;15.88;10.95;;;;;;;;;;5055379;28;20025;-30
2023/08/06 02:27:58;;;;;;;18.80;11.07;;;;;;;;;;5054922;28;20456;-31
2023/08/06 02:30:23;;;;;;;21.60;10.60;;;;;;;;;;5055001;28;20036;-30
2023/08/06 02:32:48;;;;;;;19.10;10.85;;;;;;;;;;5055450;28;20317;-31
2023/08/06 02:35:13;;;;;;;19.20;11.50;;;;;;;;;;5055227;28;20135;-31
2023/08/06 02:37:38;;;;;;;15.97;10.93;;;;;;;;;;5054625;28;20735;-31
2023/08/06 02:40:04;;;;;;;18.90;11.05;;;;;;;;;;5054820;28;20075;-30
2023/08/06 02:42:29;;;;;;;18.42;11.68;;;;;;;;;;5055011;28;20489;-31
2023/08/06 02:44:55;;;;;;;20.88;11.07;;;;;;;;;;5054653;28;20041;-31
2023/08/06 02:47:20;;;;;;;20.88;11.57;;;;;;;;;;5054028;28;20045;-30
2023/08/06 02:49:45;;;;;;;23.83;11.20;;;;;;;;;;5053874;28;20021;-31
2023/08/06 02:52:10;;;;;;;19.10;11.85;;;;;;;;;;5054292;28;20070;-30
2023/08/06 02:54:36;;;;;;;21.33;12.45;;;;;;;;;;5054593;28;20096;-31
2023/08/06 02:57:01;;;;;;;18.77;11.70;;;;;;;;;;5054259;28;20484;-31
2023/08/06 02:59:26;;;;;;;22.40;12.10;;;;;;;;;;5054734;28;20248;-30
2023/08/06 03:01:51;;;;;;;19.47;11.53;;;;;;;;;;5054154;28;20043;-30
2023/08/06 03:04:18;;;;;;;19.27;12.10;;;;;;;;;;5054103;28;20266;-32
2023/08/06 03:06:43;;;;;;;20.92;12.07;;;;;;;;;;5054688;28;20041;-32
2023/08/06 03:09:08;;;;;;;18.47;11.37;;;;;;;;;;5054509;28;20114;-31
2023/08/06 03:11:33;;;;;;;22.53;12.43;;;;;;;;;;5054212;28;20263;-32
2023/08/06 03:13:58;;;;;;;17.33;11.63;;;;;;;;;;5053891;28;20258;-32
2023/08/06 03:16:24;;;;;;;17.92;11.85;;;;;;;;;;5054128;28;20259;-32
2023/08/06 03:18:49;;;;;;;22.03;11.90;;;;;;;;;;5053832;28;20078;-32
2023/08/06 03:21:14;;;;;;;19.97;11.80;;;;;;;;;;5053802;28;20726;-31
2023/08/06 03:23:39;;;;;;;19.40;12.70;;;;;;;;;;5053751;28;20294;-32
2023/08/06 03:26:04;;;;;;;17.30;12.07;;;;;;;;;;5054251;28;20251;-31
2023/08/06 03:28:30;;;;;;;23.90;12.20;;;;;;;;;;5053663;28;20275;-32
2023/08/06 03:31:02;;;;;;;22.58;13.00;;;;;;;;;;5053603;28;20016;-31
2023/08/06 03:33:27;;;;;;;21.30;12.32;;;;;;;;;;5053676;28;20139;-31
2023/08/06 03:35:52;;;;;;;18.10;12.13;;;;;;;;;;5053586;28;20478;-30
2023/08/06 03:38:17;;;;;;;20.23;12.23;;;;;;;;;;5054177;28;20021;-32
2023/08/06 03:40:43;;;;;;;16.98;11.23;;;;;;;;;;5053841;28;20472;-32
2023/08/06 03:43:08;;;;;;;15.40;11.10;;;;;;;;;;5053439;28;20078;-31
2023/08/06 03:45:33;;;;;;;16.15;10.80;;;;;;;;;;5053483;28;20025;-32
2023/08/06 03:47:58;;;;;;;17.50;11.67;;;;;;;;;;5053459;28;20090;-31
2023/08/06 03:50:24;;;;;;;17.57;11.07;;;;;;;;;;5053486;28;20694;-32
2023/08/06 03:52:49;;;;;;;15.83;11.20;;;;;;;;;;5053375;28;20346;-31
2023/08/06 03:55:14;;;;;;;16.60;10.90;;;;;;;;;;5053686;28;20028;-32
2023/08/06 03:57:39;;;;;;;16.13;10.82;;;;;;;;;;5053658;28;20313;-32
2023/08/06 04:00:05;;;;;;;15.33;10.77;;;;;;;;;;5053156;28;20459;-30
2023/08/06 04:02:30;;;;;;;14.63;10.70;;;;;;;;;;5053293;28;20263;-32
2023/08/06 04:04:55;;;;;;;15.93;10.80;;;;;;;;;;5053885;28;20017;-31
2023/08/06 04:07:21;;;;;;;17.38;10.82;;;;;;;;;;5053205;28;20637;-31
2023/08/06 04:09:53;;;;;;;16.52;10.40;;;;;;;;;;5053204;28;20054;-31
2023/08/06 04:12:18;;;;;;;15.30;10.57;;;;;;;;;;5053225;28;20067;-31
2023/08/06 04:14:43;;;;;;;17.93;9.97;;;;;;;;;;5053563;28;20021;-31
2023/08/06 04:17:09;;;;;;;20.88;10.23;;;;;;;;;;5053242;28;20595;-31
2023/08/06 04:19:34;;;;;;;16.37;10.23;;;;;;;;;;5053448;28;20096;-32
2023/08/06 04:21:59;;;;;;;13.27;9.50;;;;;;;;;;5053394;28;20648;-31
2023/08/06 04:24:24;;;;;;;14.93;10.00;;;;;;;;;;5053665;28;20252;-30
2023/08/06 04:26:50;;;;;;;13.70;9.88;;;;;;;;;;5053354;28;20040;-30
2023/08/06 04:29:15;;;;;;;12.35;9.48;;;;;;;;;;5053329;28;20032;-31
2023/08/06 04:31:40;;;;;;;14.33;9.73;;;;;;;;;;5052958;28;20019;-31
2023/08/06 04:34:05;;;;;;;13.43;9.65;;;;;;;;;;5053100;28;20358;-31
2023/08/06 04:36:31;;;;;;;12.47;9.53;;;;;;;;;;5053060;28;20013;-32
2023/08/06 04:38:56;;;;;;;15.73;9.45;;;;;;;;;;5053040;28;20263;-30
2023/08/06 04:41:21;;;;;;;14.68;9.25;;;;;;;;;;5053325;28;20095;-31
2023/08/06 04:43:46;;;;;;;12.87;9.20;;;;;;;;;;5053219;28;20447;-31
2023/08/06 04:46:12;;;;;;;12.97;8.77;;;;;;;;;;5052814;28;20271;-31
2023/08/06 04:48:37;;;;;;;15.47;9.37;;;;;;;;;;5053387;28;20278;-31
2023/08/06 04:51:02;;;;;;;15.93;9.70;;;;;;;;;;5052906;28;20653;-31
2023/08/06 04:53:27;;;;;;;15.00;9.68;;;;;;;;;;5053435;28;20017;-32
2023/08/06 04:55:52;;;;;;;15.55;9.38;;;;;;;;;;5052815;28;20028;-31
2023/08/06 04:58:17;;;;;;;19.67;9.90;;;;;;;;;;5052859;28;20108;-32
2023/08/06 05:00:43;;;;;;;12.97;9.17;;;;;;;;;;5052850;28;20722;-30
2023/08/06 05:03:08;;;;;;;16.63;9.77;;;;;;;;;;5052753;28;20247;-32
2023/08/06 05:05:33;;;;;;;15.87;9.90;;;;;;;;;;5052692;28;20267;-31
2023/08/06 05:07:58;;;;;;;13.73;9.37;;;;;;;;;;5053224;28;20337;-30
2023/08/06 05:10:26;;;;;;;13.32;9.00;;;;;;;;;;5052916;28;20584;-32
2023/08/06 05:12:52;;;;;;;12.45;9.27;;;;;;;;;;5056317;28;20070;-31
2023/08/06 05:15:17;;;;;;;13.23;9.57;;;;;;;;;;5056210;28;20456;-32
2023/08/06 05:17:42;;;;;;;14.85;9.93;;;;;;;;;;5055018;28;20028;-31
2023/08/06 05:20:08;;;;;;;13.43;9.27;;;;;;;;;;5056409;28;20146;-30
2023/08/06 05:22:33;;;;;;;19.55;9.63;;;;;;;;;;5056318;28;20035;-31
2023/08/06 05:24:58;;;;;;;14.20;9.57;;;;;;;;;;5056626;28;20062;-31
2023/08/06 05:27:23;;;;;;;14.20;10.03;;;;;;;;;;5056171;28;20332;-32
2023/08/06 05:29:49;;;;;;;17.30;10.47;;;;;;;;;;5056134;28;20669;-31
2023/08/06 05:32:14;;;;;;;18.35;10.25;;;;;;;;;;5056182;28;20255;-30
2023/08/06 05:34:41;;;;;;;16.83;10.53;;;;;;;;;;5055878;28;20467;-31
2023/08/06 05:37:06;;;;;;;15.07;10.80;;;;;;;;;;5056040;28;20301;-31
2023/08/06 05:39:31;;;;;;;16.08;10.02;;;;;;;;;;5056008;28;20456;-31
2023/08/06 05:41:56;;;;;;;14.10;10.32;;;;;;;;;;5056013;28;20349;-32
2023/08/06 05:44:23;;;;;;;14.77;11.17;;;;;;;;;;5055979;28;20094;-32
2023/08/06 05:46:48;;;;;;;17.55;11.45;;;;;;;;;;5055505;28;20053;-30
2023/08/06 05:49:13;;;;;;;17.90;11.55;;;;;;;;;;5055756;28;20066;-32
2023/08/06 05:51:39;;;;;;;16.00;11.63;;;;;;;;;;5055456;28;20451;-32
2023/08/06 05:54:04;;;;;;;13.68;10.27;;;;;;;;;;5056028;28;20024;-32
2023/08/06 05:56:29;;;;;;;13.75;9.70;;;;;;;;;;5055978;28;20028;-31
2023/08/06 05:58:54;;;;;;;7.53;4.97;;;;;;;;;;5055403;28;20481;-31
2023/08/06 06:01:20;;;;;;;6.10;4.63;;;;;;;;;;5055370;28;20251;-31
2023/08/06 06:03:45;;;;;;;6.43;4.88;;;;;;;;;;5055606;28;20263;-31
2023/08/06 06:06:10;;;;;;;4.10;3.30;;;;;;;;;;5056139;28;20029;-31
2023/08/06 06:08:35;;;;;;;4.73;3.13;;;;;;;;;;5055687;28;20306;-32
2023/08/06 06:11:00;;;;;;;8.93;3.23;;;;;;;;;;5055474;28;20321;-32
2023/08/06 06:13:26;;;;;;;5.77;2.97;;;;;;;;;;5055158;28;20773;-31
2023/08/06 06:15:54;;;;;;;4.97;3.10;;;;;;;;;;5055071;28;20351;-32
2023/08/06 06:18:19;;;;;;;6.15;3.45;;;;;;;;;;5055085;28;20255;-32
2023/08/06 06:20:44;;;;;;;3.90;2.77;;;;;;;;;;5055006;28;20357;-31
2023/08/06 06:23:09;;;;;;;3.00;2.00;;;;;;;;;;5055094;28;20070;-30
2023/08/06 06:25:34;;;;;;;3.25;2.22;;;;;;;;;;5054848;28;20686;-31
2023/08/06 06:27:59;;;;;;;3.10;2.10;;;;;;;;;;5055332;28;20017;-31
2023/08/06 06:30:25;;;;;;;4.50;1.97;;;;;;;;;;5055005;28;20740;-30
2023/08/06 06:32:50;;;;;;;2.40;1.87;;;;;;;;;;5054994;28;20326;-31
2023/08/06 06:35:15;;;;;;;5.25;2.08;;;;;;;;;;5055293;28;20243;-31
2023/08/06 06:37:40;;;;;;;2.20;1.87;;;;;;;;;;5055222;28;20021;-31
2023/08/06 06:40:06;;;;;;;5.55;2.38;;;;;;;;;;5054703;28;20613;-31
2023/08/06 06:42:31;;;;;;;4.22;2.40;;;;;;;;;;5054527;28;20071;-32
2023/08/06 06:44:56;;;;;;;3.40;2.10;;;;;;;;;;5055114;28;20364;-32
2023/08/06 06:47:22;;;;;;;2.30;1.87;;;;;;;;;;5054172;28;20290;-31
2023/08/06 06:49:47;;;;;;;2.83;2.07;;;;;;;;;;5054699;28;20020;-32
2023/08/06 06:52:12;;;;;;;5.27;2.30;;;;;;;;;;5054279;28;20252;-32
2023/08/06 06:54:37;;;;;;;5.70;2.22;;;;;;;;;;5054252;28;20024;-32
2023/08/06 06:57:03;;;;;;;2.80;2.15;;;;;;;;;;5054526;28;20027;-31
2023/08/06 06:59:28;;;;;;;2.42;2.10;;;;;;;;;;5054410;28;20065;-31
2023/08/06 07:01:53;;;;;;;3.45;2.33;;;;;;;;;;5052865;28;20033;-31
2023/08/06 07:04:18;;;;;;;3.97;2.42;;;;;;;;;;5054249;28;20395;-31
2023/08/06 07:06:44;;;;;;;4.13;2.80;;;;;;;;;;5053953;28;20021;-32
2023/08/06 07:09:09;;;;;;;6.07;2.73;;;;;;;;;;5053773;28;20305;-31
2023/08/06 07:11:34;;;;;;;4.77;2.70;;;;;;;;;;5053893;28;20270;-31
2023/08/06 07:13:59;;;;;;;3.85;2.55;;;;;;;;;;5054137;28;20482;-32
2023/08/06 07:16:25;;;;;;;7.10;3.50;;;;;;;;;;5054068;28;20443;-31
2023/08/06 07:18:54;;;;;;;6.07;3.20;;;;;;;;;;5053838;28;20371;-30
2023/08/06 07:21:19;;;;;;;6.32;3.30;;;;;;;;;;5054088;28;20050;-31
2023/08/06 07:23:45;;;;;;;5.65;3.15;;;;;;;;;;5053762;28;20017;-32
2023/08/06 07:26:10;;;;;;;9.93;2.97;;;;;;;;;;5053764;28;20060;-31
2023/08/06 07:28:35;;;;;;;3.58;2.55;;;;;;;;;;5053223;28;20032;-31
2023/08/06 07:31:02;;;;;;;7.43;2.43;;;;;;;;;;5053781;28;20021;-31
2023/08/06 07:33:27;;;;;;;3.55;2.60;;;;;;;;;;5053799;28;20270;-31
2023/08/06 07:35:52;;;;;;;5.90;2.60;;;;;;;;;;5053304;28;20025;-31
2023/08/06 07:38:17;;;;;;;5.27;2.73;;;;;;;;;;5053623;28;20259;-32
2023/08/06 07:40:43;;;;;;;4.63;2.50;;;;;;;;;;5053597;28;20321;-32
2023/08/06 07:43:08;;;;;;;4.55;2.60;;;;;;;;;;5053749;28;20291;-31
2023/08/06 07:45:39;;;;;;;4.73;2.60;;;;;;;;;;5054175;28;20107;-32
2023/08/06 07:48:05;;;;;;;5.18;2.55;;;;;;;;;;5051976;28;20299;-32
2023/08/06 07:50:31;;;;;;;6.53;2.78;;;;;;;;;;5052241;28;20026;-32
2023/08/06 07:52:56;;;;;;;8.13;2.70;;;;;;;;;;5052275;28;20104;-32
2023/08/06 07:55:28;;;;;;;5.95;2.60;;;;;;;;;;5052218;28;20047;-32
2023/08/06 07:57:54;;;;;;;5.05;2.70;;;;;;;;;;5052113;28;20025;-31
2023/08/06 08:00:20;;;;;;;8.02;3.05;;;;;;;;;;5053003;28;20541;-31
2023/08/06 08:02:46;;;;;;;5.30;2.90;;;;;;;;;;5052032;28;20040;-31
2023/08/06 08:05:11;;;;;;;10.40;3.08;;;;;;;;;;5053110;28;20017;-31
2023/08/06 08:07:36;;;;;;;5.60;3.00;;;;;;;;;;5053686;28;20082;-31
2023/08/06 08:10:01;;;;;;;5.40;2.93;;;;;;;;;;5053262;28;20316;-31
2023/08/06 08:12:26;;;;;;;4.87;3.17;;;;;;;;;;5053481;28;20644;-31
2023/08/06 08:14:52;;;;;;;5.63;2.93;;;;;;;;;;5053297;28;20247;-31
2023/08/06 08:17:17;;;;;;;9.00;3.00;;;;;;;;;;5053701;28;20017;-31
2023/08/06 08:19:46;;;;;;;4.97;3.03;;;;;;;;;;5053980;28;20764;-31
2023/08/06 08:22:12;;;;;;;4.65;3.00;;;;;;;;;;5035773;28;20021;-31
2023/08/06 08:24:37;;;;;;;4.97;3.13;;;;;;;;;;5052959;28;20044;-31
2023/08/06 08:27:02;;;;;;;4.05;3.28;;;;;;;;;;5052620;28;20306;-31
2023/08/06 08:29:27;;;;;;;5.22;3.20;;;;;;;;;;5052315;28;20407;-31
2023/08/06 08:31:52;;;;;;;4.90;3.43;;;;;;;;;;5052559;28;20025;-31
2023/08/06 08:34:18;;;;;;;5.70;3.40;;;;;;;;;;5052352;28;20252;-31
2023/08/06 08:37:06;;;;;;;8.55;3.70;;;;;;;;;;5034576;28;20266;-31
2023/08/06 08:39:31;;;;;;;5.18;3.40;;;;;;;;;;5052420;28;20017;-31
2023/08/06 08:41:56;;;;;;;5.75;4.05;;;;;;;;;;5053025;28;20024;-32
2023/08/06 08:44:21;;;;;;;5.53;3.80;;;;;;;;;;5053796;28;20017;-31
2023/08/06 08:46:47;;;;;;;8.68;3.70;;;;;;;;;;5054494;28;20388;-31
2023/08/06 08:49:13;;;;;;;6.15;3.70;;;;;;;;;;5057026;28;20025;-31
2023/08/06 08:51:38;;;;;;;6.28;3.58;;;;;;;;;;5056983;28;20121;-32
2023/08/06 08:54:03;;;;;;;7.80;3.63;;;;;;;;;;5056708;28;20582;-32
2023/08/06 08:56:29;;;;;;;6.80;3.88;;;;;;;;;;5057399;28;20280;-31
2023/08/06 08:58:55;;;;;;;4.55;3.50;;;;;;;;;;5056542;28;20048;-31
2023/08/06 09:01:21;;;;;;;7.28;3.88;;;;;;;;;;5056775;28;20096;-31
2023/08/06 09:03:47;;;;;;;5.20;3.83;;;;;;;;;;5056698;28;20458;-30
2023/08/06 09:06:12;;;;;;;7.13;3.80;;;;;;;;;;5056401;28;20020;-31
2023/08/06 09:08:41;;;;;;;5.07;3.63;;;;;;;;;;5056330;28;20108;-31
2023/08/06 09:11:08;;;;;;;8.32;3.65;;;;;;;;;;5056533;28;20024;-31
2023/08/06 09:13:35;;;;;;;8.40;3.75;;;;;;;;;;5056217;28;20025;-32
2023/08/06 09:16:00;;;;;;;5.05;3.42;;;;;;;;;;5056155;28;20024;-31
2023/08/06 09:18:27;;;;;;;9.32;3.72;;;;;;;;;;5055786;28;20021;-32
2023/08/06 09:20:52;;;;;;;6.95;3.80;;;;;;;;;;5056178;28;20115;-32
2023/08/06 09:23:18;;;;;;;5.97;3.57;;;;;;;;;;5056039;28;20135;-32
2023/08/06 09:25:43;;;;;;;9.40;4.10;;;;;;;;;;5055934;28;20296;-32
2023/08/06 09:28:08;;;;;;;5.75;3.63;;;;;;;;;;5056228;28;20036;-31
2023/08/06 09:30:34;;;;;;;9.30;4.13;;;;;;;;;;5055825;28;20104;-32
2023/08/06 09:32:59;;;;;;;7.63;3.67;;;;;;;;;;5056424;28;20066;-32
2023/08/06 09:35:27;;;;;;;8.63;4.05;;;;;;;;;;5056074;28;20053;-32
2023/08/06 09:37:52;;;;;;;5.60;3.67;;;;;;;;;;5056578;28;20025;-31
2023/08/06 09:40:28;;;;;;;7.35;4.10;;;;;;;;;;5056034;28;20024;-32
2023/08/06 09:42:53;;;;;;;8.50;4.03;;;;;;;;;;5055973;28;20552;-31
2023/08/06 09:45:18;;;;;;;7.10;4.32;;;;;;;;;;5055934;28;20048;-32
2023/08/06 09:47:44;;;;;;;8.52;3.80;;;;;;;;;;5055526;28;20407;-31
2023/08/06 09:50:16;;;;;;;17.53;5.00;;;;;;;;;;5055523;28;20312;-32
2023/08/06 09:52:42;;;;;;;7.97;4.32;;;;;;;;;;5055880;28;20298;-32
2023/08/06 09:55:07;;;;;;;7.60;4.18;;;;;;;;;;5055485;28;20017;-32
2023/08/06 09:57:33;;;;;;;6.97;4.40;;;;;;;;;;5055536;28;20017;-32
2023/08/06 09:59:58;;;;;;;10.20;4.80;;;;;;;;;;5055652;28;20026;-32
2023/08/06 10:02:24;;;;;;;13.02;4.93;;;;;;;;;;5055233;28;20529;-31
2023/08/06 10:04:50;;;;;;;10.80;4.88;;;;;;;;;;5055595;28;20017;-32
2023/08/06 10:07:18;;;;;;;8.60;4.22;;;;;;;;;;5055289;28;20013;-32
2023/08/06 10:09:43;;;;;;;12.15;4.60;;;;;;;;;;5055058;28;20021;-31
2023/08/06 10:12:09;;;;;;;8.82;3.88;;;;;;;;;;5054914;28;20021;-32
2023/08/06 10:14:36;;;;;;;8.68;3.83;;;;;;;;;;5054921;28;20017;-31
2023/08/06 10:17:02;;;;;;;9.20;4.03;;;;;;;;;;5054627;28;20020;-32
2023/08/06 10:19:27;;;;;;;8.27;3.67;;;;;;;;;;5054575;28;20025;-32
2023/08/06 10:22:09;;;;;;;8.05;3.72;;;;;;;;;;5054748;28;20017;-32
2023/08/06 10:24:48;;;;;;;8.70;3.83;;;;;;;;;;5054876;28;20574;-32
2023/08/06 10:27:13;;;;;;;8.07;3.95;;;;;;;;;;5054919;28;20379;-32
2023/08/06 10:29:39;;;;;;;7.07;3.20;;;;;;;;;;5054990;28;20023;-31
2023/08/06 10:32:05;;;;;;;9.68;3.63;;;;;;;;;;5055069;28;20262;-32
2023/08/06 10:34:48;;;;;;;8.38;3.40;;;;;;;;;;5054763;28;20383;-31
2023/08/06 10:37:15;;;;;;;8.50;2.85;;;;;;;;;;5054683;28;20036;-31
2023/08/06 10:39:47;;;;;;;13.35;3.40;;;;;;;;;;5054653;28;20029;-31
2023/08/06 10:42:24;;;;;;;9.48;3.50;;;;;;;;;;5054637;28;20079;-31
2023/08/06 10:45:08;;;;;;;6.63;2.92;;;;;;;;;;5055099;28;20207;-31
2023/08/06 10:47:39;;;;;;;5.70;3.03;;;;;;;;;;5054579;28;20056;-32
2023/08/06 10:50:05;;;;;;;8.65;2.92;;;;;;;;;;5053232;28;20052;-32
2023/08/06 10:52:30;;;;;;;16.73;3.05;;;;;;;;;;5053114;28;20013;-32
2023/08/06 10:54:56;;;;;;;6.72;3.50;;;;;;;;;;5055158;28;20475;-32
2023/08/06 10:57:21;;;;;;;6.50;2.80;;;;;;;;;;5054530;28;20021;-31
2023/08/06 10:59:46;;;;;;;11.27;2.93;;;;;;;;;;5054314;28;20039;-32
2023/08/06 11:02:12;;;;;;;5.65;2.90;;;;;;;;;;5053499;28;20251;-32
2023/08/06 11:04:37;;;;;;;11.60;2.78;;;;;;;;;;5054229;28;20013;-32
2023/08/06 11:07:03;;;;;;;7.72;3.58;;;;;;;;;;5054148;28;20380;-31
2023/08/06 11:09:28;;;;;;;10.80;5.03;;;;;;;;;;5053562;28;20486;-32
2023/08/06 11:11:53;;;;;;;15.30;12.23;;;;;;;;;;5054075;28;20252;-32
2023/08/06 11:14:19;;;;;;;5.97;3.27;;;;;;;;;;5053910;28;20251;-32
2023/08/06 11:16:44;;;;;;;7.07;2.65;;;;;;;;;;5054260;28;20270;-31
2023/08/06 11:19:09;;;;;;;6.18;2.55;;;;;;;;;;5053712;28;20021;-32
2023/08/06 11:21:35;;;;;;;6.15;2.38;;;;;;;;;;5053824;28;20029;-30
2023/08/06 11:24:00;;;;;;;7.07;2.35;;;;;;;;;;5053923;28;20020;-31
2023/08/06 11:26:27;;;;;;;10.13;2.53;;;;;;;;;;5052920;28;20025;-32
2023/08/06 11:28:52;;;;;;;6.05;2.53;;;;;;;;;;5051556;28;20013;-32
2023/08/06 11:31:18;;;;;;;5.85;2.20;;;;;;;;;;5051767;28;20032;-32
2023/08/06 11:33:43;;;;;;;4.68;2.30;;;;;;;;;;5051624;28;20028;-32
2023/08/06 11:36:08;;;;;;;6.93;2.20;;;;;;;;;;5051571;28;20067;-32
2023/08/06 11:38:34;;;;;;;11.52;2.25;;;;;;;;;;5051909;28;20502;-32
2023/08/06 11:40:59;;;;;;;8.45;2.20;;;;;;;;;;5052378;28;20527;-32
2023/08/06 11:43:24;;;;;;;4.10;2.03;;;;;;;;;;5053424;28;20099;-32
2023/08/06 11:45:50;;;;;;;13.18;2.40;;;;;;;;;;5053386;28;20264;-32
2023/08/06 11:48:16;;;;;;;4.15;1.90;;;;;;;;;;5053232;28;20044;-32
2023/08/06 11:50:42;;;;;;;7.40;2.50;;;;;;;;;;5053767;28;20056;-32
2023/08/06 11:53:07;;;;;;;6.88;2.00;;;;;;;;;;5053417;28;20021;-32
2023/08/06 11:55:33;;;;;;;13.70;2.30;;;;;;;;;;5053678;28;20013;-32
2023/08/06 11:57:58;;;;;;;8.52;2.50;;;;;;;;;;5054120;28;20440;-32
2023/08/06 12:00:25;;;;;;;4.38;3.30;;;;;;;;;;5053279;28;20032;-31
2023/08/06 12:02:52;;;;;;;3.15;2.30;;;;;;;;;;5053552;28;20017;-31
2023/08/06 12:05:20;;;;;;;7.55;2.03;;;;;;;;;;5053591;28;20021;-31
2023/08/06 12:07:50;;;;;;;3.65;1.80;;;;;;;;;;5053158;28;20032;-31
2023/08/06 12:10:16;;;;;;;11.27;1.88;;;;;;;;;;5053511;28;20021;-31
2023/08/06 12:12:41;;;;;;;10.23;2.40;;;;;;;;;;5053283;28;20024;-31
2023/08/06 12:15:07;;;;;;;3.47;1.65;;;;;;;;;;5053373;28;20025;-31
2023/08/06 12:17:32;;;;;;;5.05;2.03;;;;;;;;;;5053321;28;20104;-31
2023/08/06 12:19:58;;;;;;;4.93;1.83;;;;;;;;;;5053630;28;20021;-32
2023/08/06 12:22:23;;;;;;;6.00;2.00;;;;;;;;;;5057465;28;20051;-31
2023/08/06 12:24:48;;;;;;;5.40;1.90;;;;;;;;;;5057509;28;20450;-32
2023/08/06 12:27:16;;;;;;;5.70;2.70;;;;;;;;;;5057544;28;20797;-32
2023/08/06 12:29:45;;;;;;;3.95;2.17;;;;;;;;;;5039340;28;20537;-32
2023/08/06 12:32:11;;;;;;;4.75;2.35;;;;;;;;;;5057147;28;20410;-32
2023/08/06 12:34:38;;;;;;;5.50;2.30;;;;;;;;;;5056688;28;20536;-32
2023/08/06 12:37:04;;;;;;;7.53;2.20;;;;;;;;;;5039290;28;20013;-32
2023/08/06 12:39:31;;;;;;;14.23;2.55;;;;;;;;;;5055800;28;20048;-32
2023/08/06 12:41:57;;;;;;;3.50;2.08;;;;;;;;;;5056918;28;20021;-32
2023/08/06 12:44:29;;;;;;;4.13;2.20;;;;;;;;;;5055657;28;20032;-32
2023/08/06 12:47:01;;;;;;;4.97;2.15;;;;;;;;;;5055581;28;20407;-32
2023/08/06 12:49:27;;;;;;;4.03;2.45;;;;;;;;;;5055588;28;20483;-32
2023/08/06 12:51:53;;;;;;;5.97;2.20;;;;;;;;;;5056817;28;20021;-32
2023/08/06 12:54:19;;;;;;;10.75;2.38;;;;;;;;;;5038956;28;20025;-32
2023/08/06 12:56:45;;;;;;;9.43;2.60;;;;;;;;;;5055520;28;20455;-32
2023/08/06 12:59:11;;;;;;;9.07;2.28;;;;;;;;;;5055371;28;20044;-33
2023/08/06 13:01:37;;;;;;;4.75;1.95;;;;;;;;;;5055419;28;20476;-32
2023/08/06 13:04:03;;;;;;;9.98;2.20;;;;;;;;;;5057222;28;20104;-33
2023/08/06 13:06:29;;;;;;;6.78;2.15;;;;;;;;;;5056787;28;20123;-36
2023/08/06 13:09:08;;;;;;;6.32;2.20;;;;;;;;;;5055115;28;20039;-32
2023/08/06 13:11:37;;;;;;;8.93;2.60;;;;;;;;;;5055206;28;20013;-33
2023/08/06 13:14:07;;;;;;;7.95;2.47;;;;;;;;;;5055386;28;20365;-32
2023/08/06 13:16:33;;;;;;;3.90;2.30;;;;;;;;;;5055052;28;20052;-32
2023/08/06 13:18:59;;;;;;;3.55;2.30;;;;;;;;;;5054936;28;20025;-32
2023/08/06 13:21:30;;;;;;;5.28;2.10;;;;;;;;;;5055008;28;20028;-32
2023/08/06 13:23:59;;;;;;;6.30;2.53;;;;;;;;;;5056800;28;20043;-32
2023/08/06 13:26:24;;;;;;;6.47;2.40;;;;;;;;;;5056015;28;20044;-32
2023/08/06 13:28:50;;;;;;;4.47;2.20;;;;;;;;;;5054589;28;20021;-32
2023/08/06 13:31:16;;;;;;;4.63;2.38;;;;;;;;;;5056097;28;20274;-32
2023/08/06 13:33:41;;;;;;;5.97;2.00;;;;;;;;;;5054418;28;20375;-31
2023/08/06 13:36:06;;;;;;;4.60;2.43;;;;;;;;;;5055109;28;20801;-32
2023/08/06 13:38:31;;;;;;;4.57;2.20;;;;;;;;;;5055952;28;20828;-30
2023/08/06 13:40:56;;;;;;;5.93;2.10;;;;;;;;;;5055608;28;20039;-32
2023/08/06 13:43:22;;;;;;;3.67;2.10;;;;;;;;;;5055670;28;20351;-31
2023/08/06 13:45:47;;;;;;;4.70;2.27;;;;;;;;;;5056359;28;20097;-31
2023/08/06 13:48:12;;;;;;;4.10;2.30;;;;;;;;;;5055338;28;20152;-31
2023/08/06 13:50:37;;;;;;;4.40;2.33;;;;;;;;;;5055854;28;20268;-31
2023/08/06 13:53:03;;;;;;;5.65;2.70;;;;;;;;;;5055899;28;20489;-31
2023/08/06 13:55:28;;;;;;;8.32;2.92;;;;;;;;;;5055528;28;20044;-31
2023/08/06 13:57:53;;;;;;;7.67;2.33;;;;;;;;;;5055518;28;20029;-32
2023/08/06 14:00:18;;;;;;;5.90;2.00;;;;;;;;;;5055735;28;20025;-31
2023/08/06 14:02:44;;;;;;;4.22;2.30;;;;;;;;;;5055307;28;20120;-31
2023/08/06 14:05:09;;;;;;;4.80;1.90;;;;;;;;;;5054914;28;20025;-32
2023/08/06 14:07:34;;;;;;;7.07;2.25;;;;;;;;;;5054819;28;20425;-32
2023/08/06 14:09:59;;;;;;;3.63;2.03;;;;;;;;;;5055159;28;20062;-32
2023/08/06 14:12:25;;;;;;;5.77;3.17;;;;;;;;;;5055241;28;20255;-32
2023/08/06 14:14:50;;;;;;;5.33;2.43;;;;;;;;;;5053983;28;20263;-32
2023/08/06 14:17:15;;;;;;;6.07;2.10;;;;;;;;;;5055092;28;20264;-32
2023/08/06 14:19:41;;;;;;;4.65;1.95;;;;;;;;;;5054993;28;20268;-32
2023/08/06 14:22:06;;;;;;;3.60;2.10;;;;;;;;;;5055277;28;20029;-31
2023/08/06 14:24:31;;;;;;;5.43;2.20;;;;;;;;;;5054961;28;20259;-32
2023/08/06 14:26:56;;;;;;;10.05;2.20;;;;;;;;;;5054027;28;20734;-31